createdAt,value
2022-12-17T00:02:05.764Z,16.33
2022-12-17T00:04:51.632Z,16.30
2022-12-17T00:07:38.496Z,13.90
2022-12-17T00:10:26.401Z,14.13
2022-12-17T00:13:12.842Z,15.02
2022-12-17T00:15:58.813Z,19.52
2022-12-17T00:18:44.731Z,13.75
2022-12-17T00:21:31.697Z,15.43
2022-12-17T00:24:17.731Z,11.55
2022-12-17T00:27:03.536Z,12.35
2022-12-17T00:29:49.588Z,13.27
2022-12-17T00:32:35.624Z,14.45
2022-12-17T00:35:22.087Z,15.77
2022-12-17T00:38:07.933Z,19.67
2022-12-17T00:40:54.105Z,17.15
2022-12-17T00:43:40.306Z,15.38
2022-12-17T00:46:26.396Z,16.02
2022-12-17T00:49:12.416Z,17.25
2022-12-17T00:51:58.416Z,17.83
2022-12-17T00:54:44.484Z,17.05
2022-12-17T00:57:31.070Z,15.38
2022-12-17T01:00:16.981Z,12.93
2022-12-17T01:03:03.077Z,13.20
2022-12-17T01:05:49.117Z,13.60
2022-12-17T01:08:35.190Z,19.67
2022-12-17T01:11:25.098Z,16.92
2022-12-17T01:14:12.126Z,12.20
2022-12-17T01:16:57.970Z,18.67
2022-12-17T01:19:58.417Z,14.25
2022-12-17T01:22:44.515Z,19.50
2022-12-17T01:25:30.506Z,12.00
2022-12-17T01:28:17.704Z,15.38
2022-12-17T01:31:03.595Z,15.98
2022-12-17T01:36:38.757Z,12.18
2022-12-17T01:39:38.006Z,10.38
2022-12-17T01:42:24.859Z,16.42
2022-12-17T01:45:13.948Z,18.88
2022-12-17T01:48:14.196Z,14.05
2022-12-17T01:51:06.126Z,13.55
2022-12-17T01:54:02.250Z,12.18
2022-12-17T01:56:48.247Z,14.82
2022-12-17T01:59:38.500Z,13.95
2022-12-17T02:02:25.665Z,14.23
2022-12-17T02:05:11.875Z,10.80
2022-12-17T02:08:13.237Z,15.30
2022-12-17T02:11:28.616Z,16.73
2022-12-17T02:14:30.657Z,13.27
2022-12-17T02:17:21.311Z,15.10
2022-12-17T02:20:20.257Z,16.00
2022-12-17T02:23:22.510Z,11.93
2022-12-17T02:26:16.110Z,19.77
2022-12-17T02:29:07.301Z,13.57
2022-12-17T02:31:56.519Z,13.20
2022-12-17T02:34:43.650Z,17.48
2022-12-17T02:37:30.202Z,16.02
2022-12-17T02:40:30.272Z,16.42
2022-12-17T02:43:17.017Z,11.27
2022-12-17T02:46:05.953Z,15.45
2022-12-17T02:48:53.235Z,15.10
2022-12-17T02:51:41.496Z,14.65
2022-12-17T02:54:30.781Z,13.60
2022-12-17T02:57:27.353Z,12.65
2022-12-17T03:00:15.097Z,12.35
2022-12-17T03:03:03.568Z,15.32
2022-12-17T03:05:52.310Z,13.18
2022-12-17T03:08:38.856Z,13.27
2022-12-17T03:11:24.626Z,10.65
2022-12-17T03:14:10.637Z,15.57
2022-12-17T03:16:57.528Z,12.27
2022-12-17T03:19:43.954Z,10.85
2022-12-17T03:22:39.258Z,7.90
2022-12-17T03:25:26.014Z,11.68
2022-12-17T03:28:12.385Z,16.45
2022-12-17T03:30:58.873Z,12.35
2022-12-17T03:33:44.755Z,9.38
2022-12-17T03:36:30.758Z,10.88
2022-12-17T03:39:16.770Z,10.45
2022-12-17T03:42:13.368Z,10.27
2022-12-17T03:44:59.653Z,11.00
2022-12-17T03:47:45.731Z,9.00
2022-12-17T03:50:31.648Z,10.85
2022-12-17T03:53:21.404Z,10.63
2022-12-17T03:56:07.416Z,10.77
2022-12-17T03:58:53.409Z,11.50
2022-12-17T04:01:39.474Z,13.40
2022-12-17T04:04:25.664Z,12.05
2022-12-17T04:07:11.730Z,15.02
2022-12-17T04:09:57.589Z,9.13
2022-12-17T04:12:44.696Z,11.05
2022-12-17T04:15:30.671Z,11.60
2022-12-17T04:18:16.931Z,13.77
2022-12-17T04:21:02.907Z,11.02
2022-12-17T04:23:48.916Z,6.95
2022-12-17T04:26:35.091Z,13.93
2022-12-17T04:29:21.280Z,10.07
2022-12-17T04:32:07.232Z,10.20
2022-12-17T04:34:53.671Z,10.10
2022-12-17T04:37:39.498Z,12.05
2022-12-17T04:40:26.915Z,12.48
2022-12-17T04:43:12.950Z,6.90
2022-12-17T04:45:59.591Z,10.27
2022-12-17T04:48:45.608Z,8.30
2022-12-17T04:51:31.500Z,7.53
2022-12-17T04:54:17.481Z,7.57
2022-12-17T04:57:03.897Z,13.35
2022-12-17T04:59:49.942Z,9.82
2022-12-17T05:02:40.916Z,8.48
2022-12-17T05:05:29.311Z,10.07
2022-12-17T05:08:16.151Z,9.27
2022-12-17T05:11:02.771Z,11.95
2022-12-17T05:13:51.366Z,10.40
2022-12-17T05:16:37.870Z,10.68
2022-12-17T05:19:23.573Z,12.07
2022-12-17T05:22:09.608Z,6.88
2022-12-17T05:24:56.147Z,9.27
2022-12-17T05:27:42.519Z,10.77
2022-12-17T05:30:29.198Z,8.07
2022-12-17T05:33:19.889Z,6.13
2022-12-17T05:36:10.505Z,5.68
2022-12-17T05:38:56.830Z,13.30
2022-12-17T05:41:42.810Z,7.45
2022-12-17T05:44:28.862Z,7.38
2022-12-17T05:47:14.627Z,7.07
2022-12-17T05:50:00.461Z,9.38
2022-12-17T05:52:46.375Z,8.20
2022-12-17T05:55:32.477Z,11.43
2022-12-17T05:58:28.109Z,9.82
2022-12-17T06:01:18.851Z,10.23
2022-12-17T06:04:05.478Z,8.02
2022-12-17T06:06:54.390Z,9.18
2022-12-17T06:09:40.317Z,8.27
2022-12-17T06:12:27.648Z,12.00
2022-12-17T06:15:16.851Z,9.95
2022-12-17T06:18:16.421Z,8.38
2022-12-17T06:21:08.435Z,11.40
2022-12-17T06:23:54.442Z,10.52
2022-12-17T06:26:40.431Z,7.95
2022-12-17T06:29:29.867Z,16.55
2022-12-17T06:32:18.100Z,9.07
2022-12-17T06:35:04.240Z,10.45
2022-12-17T06:37:50.506Z,13.35
2022-12-17T06:40:36.650Z,10.52
2022-12-17T06:43:22.972Z,11.88
2022-12-17T06:46:11.572Z,8.63
2022-12-17T06:48:57.682Z,11.18
2022-12-17T06:51:46.835Z,15.80
2022-12-17T06:54:32.842Z,13.82
2022-12-17T06:57:18.938Z,14.40
2022-12-17T07:00:04.950Z,8.40
2022-12-17T07:02:51.057Z,14.30
2022-12-17T07:05:37.192Z,13.75
2022-12-17T07:08:23.373Z,13.55
2022-12-17T07:11:09.275Z,10.93
2022-12-17T07:13:56.576Z,8.13
2022-12-17T07:16:42.748Z,12.75
2022-12-17T07:19:28.927Z,11.18
2022-12-17T07:22:15.919Z,9.10
2022-12-17T07:25:01.927Z,15.10
2022-12-17T07:27:55.542Z,20.42
2022-12-17T07:30:44.243Z,13.77
2022-12-17T07:33:30.461Z,20.33
2022-12-17T07:36:16.562Z,12.30
2022-12-17T07:39:02.615Z,12.13
2022-12-17T07:41:48.955Z,12.02
2022-12-17T07:44:35.085Z,22.67
2022-12-17T07:47:21.134Z,14.88
2022-12-17T07:50:07.570Z,14.18
2022-12-17T07:52:53.732Z,16.73
2022-12-17T07:55:39.737Z,12.73
2022-12-17T07:58:29.633Z,14.23
2022-12-17T08:01:21.163Z,16.13
2022-12-17T08:04:07.593Z,13.30
2022-12-17T08:06:59.779Z,13.40
2022-12-17T08:09:55.257Z,13.32
2022-12-17T08:12:51.873Z,11.35
2022-12-17T08:15:38.157Z,12.93
2022-12-17T08:18:26.858Z,20.27
2022-12-17T08:21:17.698Z,14.40
2022-12-17T08:24:06.074Z,17.67
2022-12-17T08:26:56.002Z,14.45
2022-12-17T08:29:42.050Z,12.43
2022-12-17T08:32:28.490Z,16.50
2022-12-17T08:35:16.153Z,16.13
2022-12-17T08:40:48.612Z,12.80
2022-12-17T08:43:38.468Z,15.68
2022-12-17T08:46:24.782Z,20.08
2022-12-17T08:49:11.161Z,17.40
2022-12-17T08:51:57.026Z,14.57
2022-12-17T08:54:43.362Z,25.33
2022-12-17T08:57:32.364Z,19.65
2022-12-17T09:00:21.170Z,18.02
2022-12-17T09:03:07.195Z,17.38
2022-12-17T09:06:13.285Z,19.55
2022-12-17T09:09:00.776Z,15.63
2022-12-17T09:11:49.658Z,21.02
2022-12-17T09:14:35.976Z,16.88
2022-12-17T09:17:22.081Z,23.65
2022-12-17T09:20:12.227Z,17.95
2022-12-17T09:22:58.228Z,20.73
2022-12-17T09:25:44.372Z,20.75
2022-12-17T09:28:30.351Z,27.10
2022-12-17T09:31:20.168Z,16.30
2022-12-17T09:34:08.526Z,22.05
2022-12-17T09:36:56.747Z,29.55
2022-12-17T09:39:46.710Z,26.52
2022-12-17T09:42:53.447Z,28.55
2022-12-17T09:46:10.928Z,34.33
2022-12-17T09:49:08.079Z,26.52
2022-12-17T09:51:55.812Z,33.63
2022-12-17T09:55:01.703Z,34.15
2022-12-17T09:57:56.089Z,45.22
2022-12-17T10:00:51.696Z,36.75
2022-12-17T10:03:54.308Z,35.08
2022-12-17T10:06:47.154Z,27.77
2022-12-17T10:09:36.897Z,34.65
2022-12-17T10:12:38.355Z,36.90
2022-12-17T10:15:26.241Z,31.48
2022-12-17T10:18:12.594Z,31.75
2022-12-17T10:21:03.404Z,31.75
2022-12-17T10:23:55.527Z,33.15
2022-12-17T10:26:49.878Z,32.40
2022-12-17T10:29:48.062Z,38.33
2022-12-17T10:32:37.293Z,34.47
2022-12-17T10:35:53.535Z,30.05
2022-12-17T10:38:49.315Z,35.10
2022-12-17T10:41:54.551Z,32.13
2022-12-17T10:44:42.055Z,40.75
2022-12-17T10:47:30.815Z,42.40
2022-12-17T10:50:55.258Z,36.55
2022-12-17T10:53:48.651Z,37.13
2022-12-17T10:56:45.458Z,32.45
2022-12-17T10:59:48.070Z,38.27
2022-12-17T11:02:46.033Z,33.60
2022-12-17T11:05:47.215Z,28.35
2022-12-17T11:08:35.074Z,26.90
2022-12-17T11:11:28.440Z,29.45
2022-12-17T11:14:18.497Z,24.42
2022-12-17T11:17:11.703Z,23.67
2022-12-17T11:20:16.192Z,25.67
2022-12-17T11:23:18.431Z,26.23
2022-12-17T11:26:14.572Z,24.73
2022-12-17T11:29:00.613Z,21.48
2022-12-17T11:32:08.425Z,15.23
2022-12-17T11:35:18.199Z,17.35
2022-12-17T11:38:48.089Z,17.60
2022-12-17T11:41:43.169Z,19.17
2022-12-17T11:44:58.669Z,18.48
2022-12-17T11:48:10.823Z,24.08
2022-12-17T11:51:24.970Z,16.05
2022-12-17T11:54:21.244Z,19.05
2022-12-17T11:57:16.288Z,19.75
2022-12-17T12:00:13.245Z,22.00
2022-12-17T12:02:59.342Z,31.08
2022-12-17T12:05:52.109Z,19.13
2022-12-17T12:09:08.910Z,20.38
2022-12-17T12:12:09.053Z,23.23
2022-12-17T12:15:33.487Z,15.77
2022-12-17T12:18:28.919Z,18.75
2022-12-17T12:21:57.084Z,16.88
2022-12-17T12:25:02.281Z,24.00
2022-12-17T12:27:52.739Z,19.88
2022-12-17T12:30:54.589Z,15.95
2022-12-17T12:34:10.583Z,24.23
2022-12-17T12:36:58.074Z,19.88
2022-12-17T12:40:04.409Z,20.70
2022-12-17T12:43:04.207Z,19.45
2022-12-17T12:46:10.867Z,23.23
2022-12-17T12:49:28.421Z,19.23
2022-12-17T12:55:07.095Z,21.17
2022-12-17T12:58:23.185Z,21.27
2022-12-17T13:01:09.194Z,19.42
2022-12-17T13:04:07.855Z,22.60
2022-12-17T13:06:54.262Z,26.48
2022-12-17T13:09:35.251Z,16.88
2022-12-17T13:12:02.923Z,18.98
2022-12-17T13:14:42.736Z,22.52
2022-12-17T13:17:18.837Z,27.27
2022-12-17T13:19:58.629Z,19.80
2022-12-17T13:22:33.736Z,21.27
2022-12-17T13:25:18.153Z,20.48
2022-12-17T13:27:48.175Z,20.60
2022-12-17T13:30:18.445Z,25.65
2022-12-17T13:33:27.072Z,29.90
2022-12-17T13:36:31.987Z,27.10
2022-12-17T13:39:40.557Z,30.08
2022-12-17T13:42:40.615Z,28.10
2022-12-17T13:45:19.797Z,28.63
2022-12-17T13:47:57.694Z,25.50
2022-12-17T13:53:11.830Z,31.42
2022-12-17T13:55:49.179Z,24.92
2022-12-17T13:58:33.495Z,36.00
2022-12-17T14:01:09.665Z,27.38
2022-12-17T14:06:38.384Z,23.77
2022-12-17T14:09:06.390Z,20.02
2022-12-17T14:11:55.739Z,21.35
2022-12-17T14:17:02.981Z,22.48
2022-12-17T14:19:13.011Z,21.50
2022-12-17T14:47:08.171Z,16.48
2022-12-17T14:55:28.171Z,17.60
2022-12-17T15:08:15.508Z,22.58
2022-12-17T15:18:40.783Z,15.02
2022-12-17T15:21:11.515Z,15.82
2022-12-17T15:23:45.364Z,14.48
2022-12-17T15:26:16.153Z,12.55
2022-12-17T15:28:44.928Z,16.23
2022-12-17T15:31:20.624Z,11.05
2022-12-17T15:33:51.249Z,14.35
2022-12-17T15:36:24.512Z,15.32
2022-12-17T15:38:52.560Z,15.85
2022-12-17T15:41:41.795Z,15.05
2022-12-17T15:44:09.673Z,11.63
2022-12-17T15:46:37.358Z,10.57
2022-12-17T15:49:14.638Z,13.93
2022-12-17T15:52:06.782Z,14.32
2022-12-17T15:54:45.417Z,16.10
2022-12-17T15:57:18.373Z,31.50
2022-12-17T15:59:53.877Z,32.05
2022-12-17T16:02:22.661Z,22.02
2022-12-17T16:04:50.589Z,21.13
2022-12-17T16:07:32.138Z,19.27
2022-12-17T16:10:09.650Z,15.45
2022-12-17T16:12:38.095Z,17.15
2022-12-17T16:15:08.895Z,17.50
2022-12-17T16:17:37.443Z,21.95
2022-12-17T16:20:10.092Z,17.08
2022-12-17T16:22:38.145Z,19.45
2022-12-17T16:30:12.114Z,22.75
2022-12-17T16:32:57.283Z,23.67
2022-12-17T16:35:31.355Z,20.67
2022-12-17T16:37:58.873Z,26.60
2022-12-17T16:51:29.866Z,22.10
2022-12-17T18:02:09.419Z,45.13
2022-12-17T18:30:22.760Z,66.38
2022-12-17T18:33:01.412Z,69.95
2022-12-17T18:35:31.946Z,71.55
2022-12-17T18:38:09.730Z,77.25
2022-12-17T18:40:37.985Z,73.28
2022-12-17T18:43:24.279Z,65.15
2022-12-17T18:46:00.472Z,53.45
2022-12-17T18:48:37.422Z,49.22
2022-12-17T18:51:06.261Z,41.83
2022-12-17T18:53:37.663Z,41.17
2022-12-17T18:56:16.648Z,44.08
2022-12-17T18:58:55.678Z,49.10
2022-12-17T19:01:35.541Z,50.40
2022-12-17T19:04:11.636Z,45.15
2022-12-17T19:06:43.515Z,45.85
2022-12-17T19:09:22.838Z,53.53
2022-12-17T19:11:52.073Z,56.78
2022-12-17T19:14:22.151Z,62.88
2022-12-17T19:16:51.762Z,65.57
2022-12-17T19:19:19.824Z,71.38
2022-12-17T19:24:17.878Z,67.63
2022-12-17T19:26:46.465Z,76.18
2022-12-17T19:29:15.704Z,88.18
2022-12-17T19:31:43.893Z,76.50
2022-12-17T19:34:14.416Z,80.13
2022-12-17T19:36:42.973Z,74.03
2022-12-17T19:39:19.916Z,77.10
2022-12-17T19:41:50.351Z,110.82
2022-12-17T19:44:20.128Z,91.90
2022-12-17T19:46:48.466Z,88.80
2022-12-17T19:49:17.010Z,90.95
2022-12-17T19:51:45.353Z,99.45
2022-12-17T19:54:15.333Z,99.95
2022-12-17T19:56:45.425Z,100.50
2022-12-17T19:59:13.746Z,93.38
2022-12-17T20:01:45.474Z,133.82
2022-12-17T20:04:14.858Z,121.30
2022-12-17T20:06:52.272Z,127.88
2022-12-17T20:09:19.976Z,138.13
2022-12-17T20:12:01.968Z,131.27
2022-12-17T20:14:34.363Z,142.57
2022-12-17T20:17:05.599Z,153.45
2022-12-17T20:19:37.308Z,140.73
2022-12-17T20:22:06.428Z,181.27
2022-12-17T20:24:34.322Z,150.02
2022-12-17T20:27:02.258Z,135.88
2022-12-17T20:29:36.014Z,139.43
2022-12-17T20:32:10.639Z,141.25
2022-12-17T20:34:45.322Z,124.90
2022-12-17T20:37:16.774Z,144.20
2022-12-17T20:39:50.081Z,131.73
2022-12-17T20:42:28.491Z,153.35
2022-12-17T20:44:58.553Z,158.45
2022-12-17T20:47:32.167Z,170.95
2022-12-17T20:49:59.772Z,163.75
2022-12-17T20:52:27.499Z,167.77
2022-12-17T20:54:58.057Z,151.93
2022-12-17T20:57:28.842Z,152.70
2022-12-17T20:59:56.577Z,153.30
2022-12-17T21:02:34.528Z,144.93
2022-12-17T21:05:03.590Z,155.52
2022-12-17T21:07:34.529Z,149.57
2022-12-17T21:10:04.759Z,138.43
2022-12-17T21:12:52.466Z,146.77
2022-12-17T21:15:23.486Z,135.93
2022-12-17T21:17:51.143Z,140.70
2022-12-17T21:20:21.947Z,143.63
2022-12-17T21:22:49.669Z,144.10
2022-12-17T21:25:17.414Z,135.00
2022-12-17T21:27:45.342Z,138.27
2022-12-17T21:30:15.684Z,129.73
2022-12-17T21:32:43.390Z,130.15
2022-12-17T21:35:12.173Z,135.23
2022-12-17T21:37:39.839Z,124.85
2022-12-17T21:40:09.250Z,133.68
2022-12-17T21:42:55.348Z,134.38
2022-12-17T21:45:23.125Z,151.05
2022-12-17T21:47:51.506Z,139.80
2022-12-17T21:50:19.232Z,144.27
2022-12-17T21:52:47.028Z,148.95
2022-12-17T21:55:14.704Z,136.15
2022-12-17T21:57:42.374Z,146.48
2022-12-17T22:00:10.782Z,149.38
2022-12-17T22:02:38.641Z,146.38
2022-12-17T22:05:06.540Z,143.40
2022-12-17T22:07:41.348Z,142.82
2022-12-17T22:10:29.219Z,145.32
2022-12-17T22:16:07.988Z,154.43
2022-12-17T22:18:35.750Z,179.70
2022-12-17T22:23:31.595Z,168.63
2022-12-17T22:25:59.537Z,183.93
2022-12-17T22:28:30.055Z,180.85
2022-12-17T22:31:23.678Z,164.48
2022-12-17T22:34:41.183Z,181.55
2022-12-17T22:38:19.119Z,179.25
2022-12-17T22:42:59.310Z,164.70
2022-12-17T22:44:42.338Z,179.43
2022-12-17T22:45:32.022Z,181.95
2022-12-17T22:47:59.852Z,189.48
2022-12-17T22:50:29.175Z,182.80
2022-12-17T22:53:05.847Z,190.20
2022-12-17T22:55:34.628Z,189.65
2022-12-17T22:58:02.764Z,170.40
2022-12-17T23:00:33.042Z,189.43
2022-12-17T23:03:01.363Z,179.05
2022-12-17T23:05:30.100Z,178.30
2022-12-17T23:07:58.022Z,177.68
2022-12-17T23:10:26.837Z,181.02
2022-12-17T23:12:55.316Z,157.75
2022-12-17T23:15:36.579Z,169.88
2022-12-17T23:18:07.082Z,163.70
2022-12-17T23:20:34.964Z,165.13
2022-12-17T23:23:02.746Z,149.00
2022-12-17T23:25:31.092Z,148.77
2022-12-17T23:27:58.696Z,162.27
2022-12-17T23:30:26.777Z,171.50
2022-12-17T23:32:54.391Z,152.98
2022-12-17T23:35:22.365Z,158.10
2022-12-17T23:37:49.807Z,156.10
2022-12-17T23:40:17.371Z,154.57
2022-12-17T23:42:45.349Z,152.45
2022-12-17T23:45:13.147Z,147.15
2022-12-17T23:52:37.510Z,120.63
2022-12-17T23:55:05.750Z,136.30
2022-12-17T23:57:35.750Z,127.72
